sensor_id;sensor_type;location;lat;lon;timestamp;pressure;altitude;pressure_sealevel;temperature
42119;BMP280;27783;42.782;23.274;2022-12-18T00:01:18;96295.09;;;6.24
42119;BMP280;27783;42.782;23.274;2022-12-18T00:03:47;96293.66;;;6.26
42119;BMP280;27783;42.782;23.274;2022-12-18T00:06:15;96298.38;;;6.21
42119;BMP280;27783;42.782;23.274;2022-12-18T00:08:57;96305.78;;;6.19
42119;BMP280;27783;42.782;23.274;2022-12-18T00:11:27;96313.13;;;6.14
42119;BMP280;27783;42.782;23.274;2022-12-18T00:14:00;96304.09;;;6.11
42119;BMP280;27783;42.782;23.274;2022-12-18T00:16:28;96312.63;;;6.08
42119;BMP280;27783;42.782;23.274;2022-12-18T00:18:56;96309.75;;;6.13
42119;BMP280;27783;42.782;23.274;2022-12-18T00:21:22;96319.72;;;6.08
42119;BMP280;27783;42.782;23.274;2022-12-18T00:23:49;96329.31;;;6.04
42119;BMP280;27783;42.782;23.274;2022-12-18T00:26:28;96330.84;;;6.05
42119;BMP280;27783;42.782;23.274;2022-12-18T00:29:02;96342.66;;;5.99
42119;BMP280;27783;42.782;23.274;2022-12-18T00:31:28;96346.34;;;5.98
42119;BMP280;27783;42.782;23.274;2022-12-18T00:34:03;96346.34;;;5.98
42119;BMP280;27783;42.782;23.274;2022-12-18T00:36:32;96351.59;;;5.98
42119;BMP280;27783;42.782;23.274;2022-12-18T00:39:09;96347.34;;;5.94
42119;BMP280;27783;42.782;23.274;2022-12-18T00:41:36;96348.78;;;5.91
42119;BMP280;27783;42.782;23.274;2022-12-18T00:44:20;96353.50;;;5.86
42119;BMP280;27783;42.782;23.274;2022-12-18T00:46:47;96350.53;;;5.87
42119;BMP280;27783;42.782;23.274;2022-12-18T00:49:16;96346.38;;;5.86
42119;BMP280;27783;42.782;23.274;2022-12-18T00:51:43;96345.19;;;5.84
42119;BMP280;27783;42.782;23.274;2022-12-18T00:54:09;96341.31;;;5.78
42119;BMP280;27783;42.782;23.274;2022-12-18T00:56:37;96349.91;;;5.79
42119;BMP280;27783;42.782;23.274;2022-12-18T00:59:03;96356.22;;;5.78
42119;BMP280;27783;42.782;23.274;2022-12-18T01:01:30;96359.50;;;5.75
42119;BMP280;27783;42.782;23.274;2022-12-18T01:03:57;96357.22;;;5.73
42119;BMP280;27783;42.782;23.274;2022-12-18T01:06:22;96365.19;;;5.65
42119;BMP280;27783;42.782;23.274;2022-12-18T01:08:48;96372.81;;;5.70
42119;BMP280;27783;42.782;23.274;2022-12-18T01:11:17;96374.59;;;5.66
42119;BMP280;27783;42.782;23.274;2022-12-18T01:13:44;96375.22;;;5.63
42119;BMP280;27783;42.782;23.274;2022-12-18T01:16:15;96376.75;;;5.64
42119;BMP280;27783;42.782;23.274;2022-12-18T01:18:41;96373.81;;;5.66
42119;BMP280;27783;42.782;23.274;2022-12-18T01:21:08;96377.63;;;5.56
42119;BMP280;27783;42.782;23.274;2022-12-18T01:23:34;96377.16;;;5.54
42119;BMP280;27783;42.782;23.274;2022-12-18T01:26:05;96389.16;;;5.55
42119;BMP280;27783;42.782;23.274;2022-12-18T01:28:32;96398.53;;;5.45
42119;BMP280;27783;42.782;23.274;2022-12-18T01:31:23;96387.88;;;5.49
42119;BMP280;27783;42.782;23.274;2022-12-18T01:33:52;96397.09;;;5.47
42119;BMP280;27783;42.782;23.274;2022-12-18T01:36:23;96391.88;;;5.47
42119;BMP280;27783;42.782;23.274;2022-12-18T01:38:51;96391.00;;;5.43
42119;BMP280;27783;42.782;23.274;2022-12-18T01:41:20;96384.38;;;5.34
42119;BMP280;27783;42.782;23.274;2022-12-18T01:43:58;96391.13;;;5.35
42119;BMP280;27783;42.782;23.274;2022-12-18T01:46:26;96387.88;;;5.38
42119;BMP280;27783;42.782;23.274;2022-12-18T01:49:00;96379.59;;;5.36
42119;BMP280;27783;42.782;23.274;2022-12-18T01:51:30;96392.22;;;5.34
42119;BMP280;27783;42.782;23.274;2022-12-18T01:54:12;96390.47;;;5.38
42119;BMP280;27783;42.782;23.274;2022-12-18T01:56:39;96400.06;;;5.34
42119;BMP280;27783;42.782;23.274;2022-12-18T01:59:08;96399.19;;;5.30
42119;BMP280;27783;42.782;23.274;2022-12-18T02:01:36;96407.69;;;5.27
42119;BMP280;27783;42.782;23.274;2022-12-18T02:04:23;96414.34;;;5.25
42119;BMP280;27783;42.782;23.274;2022-12-18T02:07:15;96412.06;;;5.23
42119;BMP280;27783;42.782;23.274;2022-12-18T02:10:02;96419.03;;;5.19
42119;BMP280;27783;42.782;23.274;2022-12-18T02:12:49;96416.19;;;5.13
42119;BMP280;27783;42.782;23.274;2022-12-18T02:18:25;96422.72;;;5.07
42119;BMP280;27783;42.782;23.274;2022-12-18T02:21:28;96422.59;;;5.03
42119;BMP280;27783;42.782;23.274;2022-12-18T02:26:38;96429.22;;;5.01
42119;BMP280;27783;42.782;23.274;2022-12-18T02:29:16;96434.22;;;4.94
42119;BMP280;27783;42.782;23.274;2022-12-18T02:31:51;96436.59;;;4.87
42119;BMP280;27783;42.782;23.274;2022-12-18T02:34:18;96438.34;;;4.83
42119;BMP280;27783;42.782;23.274;2022-12-18T02:36:50;96438.00;;;4.85
42119;BMP280;27783;42.782;23.274;2022-12-18T02:39:17;96445.50;;;4.75
42119;BMP280;27783;42.782;23.274;2022-12-18T02:41:46;96445.38;;;4.71
42119;BMP280;27783;42.782;23.274;2022-12-18T02:44:20;96452.03;;;4.69
42119;BMP280;27783;42.782;23.274;2022-12-18T02:46:51;96451.13;;;4.65
42119;BMP280;27783;42.782;23.274;2022-12-18T02:55:41;96455.81;;;4.71
42119;BMP280;27783;42.782;23.274;2022-12-18T02:58:14;96450.47;;;4.68
42119;BMP280;27783;42.782;23.274;2022-12-18T03:06:03;96465.78;;;4.58
42119;BMP280;27783;42.782;23.274;2022-12-18T03:08:43;96459.19;;;4.60
42119;BMP280;27783;42.782;23.274;2022-12-18T03:11:19;96469.41;;;4.65
42119;BMP280;27783;42.782;23.274;2022-12-18T03:14:06;96462.75;;;4.56
42119;BMP280;27783;42.782;23.274;2022-12-18T03:16:49;96460.81;;;4.65
42119;BMP280;27783;42.782;23.274;2022-12-18T03:19:26;96462.34;;;4.65
42119;BMP280;27783;42.782;23.274;2022-12-18T03:21:56;96471.13;;;4.61
42119;BMP280;27783;42.782;23.274;2022-12-18T03:24:24;96471.34;;;4.56
42119;BMP280;27783;42.782;23.274;2022-12-18T03:26:54;96472.75;;;4.54
42119;BMP280;27783;42.782;23.274;2022-12-18T03:29:34;96478.94;;;4.49
42119;BMP280;27783;42.782;23.274;2022-12-18T03:32:12;96483.38;;;4.49
42119;BMP280;27783;42.782;23.274;2022-12-18T03:34:43;96490.69;;;4.55
42119;BMP280;27783;42.782;23.274;2022-12-18T03:37:11;96501.78;;;4.52
42119;BMP280;27783;42.782;23.274;2022-12-18T03:39:38;96513.75;;;4.53
42119;BMP280;27783;42.782;23.274;2022-12-18T03:44:51;96516.28;;;4.42
42119;BMP280;27783;42.782;23.274;2022-12-18T03:47:25;96510.44;;;4.45
42119;BMP280;27783;42.782;23.274;2022-12-18T03:50:12;96523.06;;;4.43
42119;BMP280;27783;42.782;23.274;2022-12-18T03:53:11;96521.63;;;4.45
42119;BMP280;27783;42.782;23.274;2022-12-18T03:55:38;96528.97;;;4.51
42119;BMP280;27783;42.782;23.274;2022-12-18T03:58:06;96514.56;;;4.46
42119;BMP280;27783;42.782;23.274;2022-12-18T04:00:34;96520.19;;;4.36
42119;BMP280;27783;42.782;23.274;2022-12-18T04:03:00;96524.75;;;4.39
42119;BMP280;27783;42.782;23.274;2022-12-18T04:05:30;96526.19;;;4.36
42119;BMP280;27783;42.782;23.274;2022-12-18T04:07:57;96527.38;;;4.39
42119;BMP280;27783;42.782;23.274;2022-12-18T04:10:45;96519.28;;;4.32
42119;BMP280;27783;42.782;23.274;2022-12-18T04:13:32;96528.00;;;4.36
42119;BMP280;27783;42.782;23.274;2022-12-18T04:15:58;96533.66;;;4.38
42119;BMP280;27783;42.782;23.274;2022-12-18T04:18:25;96528.78;;;4.36
42119;BMP280;27783;42.782;23.274;2022-12-18T04:20:51;96533.38;;;4.39
42119;BMP280;27783;42.782;23.274;2022-12-18T04:23:17;96543.38;;;4.37
42119;BMP280;27783;42.782;23.274;2022-12-18T04:25:42;96544.44;;;4.36
42119;BMP280;27783;42.782;23.274;2022-12-18T04:28:08;96543.25;;;4.34
42119;BMP280;27783;42.782;23.274;2022-12-18T04:30:34;96541.69;;;4.33
42119;BMP280;27783;42.782;23.274;2022-12-18T04:33:03;96540.28;;;4.35
42119;BMP280;27783;42.782;23.274;2022-12-18T04:35:30;96546.63;;;4.34
42119;BMP280;27783;42.782;23.274;2022-12-18T04:37:55;96547.34;;;4.35
42119;BMP280;27783;42.782;23.274;2022-12-18T04:40:21;96553.53;;;4.31
42119;BMP280;27783;42.782;23.274;2022-12-18T04:42:48;96567.38;;;4.31
42119;BMP280;27783;42.782;23.274;2022-12-18T04:45:16;96563.97;;;4.31
42119;BMP280;27783;42.782;23.274;2022-12-18T04:47:41;96582.56;;;4.29
42119;BMP280;27783;42.782;23.274;2022-12-18T04:50:07;96572.25;;;4.32
42119;BMP280;27783;42.782;23.274;2022-12-18T04:52:32;96571.47;;;4.32
42119;BMP280;27783;42.782;23.274;2022-12-18T04:54:58;96575.06;;;4.28
42119;BMP280;27783;42.782;23.274;2022-12-18T04:57:24;96578.88;;;4.30
42119;BMP280;27783;42.782;23.274;2022-12-18T04:59:53;96594.91;;;4.20
42119;BMP280;27783;42.782;23.274;2022-12-18T05:02:20;96583.44;;;4.13
42119;BMP280;27783;42.782;23.274;2022-12-18T05:04:46;96590.31;;;4.17
42119;BMP280;27783;42.782;23.274;2022-12-18T05:07:20;96591.81;;;4.18
42119;BMP280;27783;42.782;23.274;2022-12-18T05:10:06;96599.78;;;4.22
42119;BMP280;27783;42.782;23.274;2022-12-18T05:12:32;96603.94;;;4.23
42119;BMP280;27783;42.782;23.274;2022-12-18T05:14:58;96619.59;;;4.23
42119;BMP280;27783;42.782;23.274;2022-12-18T05:17:25;96616.69;;;4.24
42119;BMP280;27783;42.782;23.274;2022-12-18T05:19:51;96622.69;;;4.16
42119;BMP280;27783;42.782;23.274;2022-12-18T05:22:22;96625.31;;;4.16
42119;BMP280;27783;42.782;23.274;2022-12-18T05:24:47;96627.00;;;4.13
42119;BMP280;27783;42.782;23.274;2022-12-18T05:27:13;96633.50;;;4.07
42119;BMP280;27783;42.782;23.274;2022-12-18T05:29:39;96626.44;;;4.07
42119;BMP280;27783;42.782;23.274;2022-12-18T05:32:04;96635.47;;;4.10
42119;BMP280;27783;42.782;23.274;2022-12-18T05:34:31;96645.47;;;4.08
42119;BMP280;27783;42.782;23.274;2022-12-18T05:36:57;96643.78;;;4.03
42119;BMP280;27783;42.782;23.274;2022-12-18T05:39:23;96644.06;;;4.10
42119;BMP280;27783;42.782;23.274;2022-12-18T05:41:50;96645.00;;;4.06
42119;BMP280;27783;42.782;23.274;2022-12-18T05:44:17;96646.09;;;4.05
42119;BMP280;27783;42.782;23.274;2022-12-18T05:46:42;96642.72;;;4.04
42119;BMP280;27783;42.782;23.274;2022-12-18T05:49:07;96640.41;;;4.03
42119;BMP280;27783;42.782;23.274;2022-12-18T05:51:34;96651.91;;;4.02
42119;BMP280;27783;42.782;23.274;2022-12-18T05:54:00;96670.16;;;4.02
42119;BMP280;27783;42.782;23.274;2022-12-18T05:56:27;96667.75;;;3.97
42119;BMP280;27783;42.782;23.274;2022-12-18T05:58:55;96673.88;;;4.01
42119;BMP280;27783;42.782;23.274;2022-12-18T06:01:24;96678.94;;;3.98
42119;BMP280;27783;42.782;23.274;2022-12-18T06:03:50;96685.81;;;4.02
42119;BMP280;27783;42.782;23.274;2022-12-18T06:06:22;96678.47;;;4.04
42119;BMP280;27783;42.782;23.274;2022-12-18T06:08:48;96686.91;;;4.01
42119;BMP280;27783;42.782;23.274;2022-12-18T06:11:17;96685.38;;;4.00
42119;BMP280;27783;42.782;23.274;2022-12-18T06:13:45;96694.91;;;3.96
42119;BMP280;27783;42.782;23.274;2022-12-18T06:16:11;96703.19;;;3.98
42119;BMP280;27783;42.782;23.274;2022-12-18T06:18:37;96701.94;;;4.04
42119;BMP280;27783;42.782;23.274;2022-12-18T06:21:04;96702.72;;;3.96
42119;BMP280;27783;42.782;23.274;2022-12-18T06:23:29;96704.25;;;3.97
42119;BMP280;27783;42.782;23.274;2022-12-18T06:25:56;96707.31;;;3.99
42119;BMP280;27783;42.782;23.274;2022-12-18T06:28:24;96713.16;;;3.96
42119;BMP280;27783;42.782;23.274;2022-12-18T06:30:49;96719.44;;;3.95
42119;BMP280;27783;42.782;23.274;2022-12-18T06:33:16;96712.09;;;3.97
42119;BMP280;27783;42.782;23.274;2022-12-18T06:35:42;96707.78;;;4.01
42119;BMP280;27783;42.782;23.274;2022-12-18T06:38:09;96711.63;;;3.95
42119;BMP280;27783;42.782;23.274;2022-12-18T06:40:37;96721.44;;;3.98
42119;BMP280;27783;42.782;23.274;2022-12-18T06:43:04;96718.69;;;3.95
42119;BMP280;27783;42.782;23.274;2022-12-18T06:45:30;96729.56;;;3.97
42119;BMP280;27783;42.782;23.274;2022-12-18T06:47:55;96748.13;;;3.95
42119;BMP280;27783;42.782;23.274;2022-12-18T06:50:20;96739.84;;;3.93
42119;BMP280;27783;42.782;23.274;2022-12-18T06:52:47;96746.28;;;3.96
42119;BMP280;27783;42.782;23.274;2022-12-18T06:55:14;96736.47;;;4.01
42119;BMP280;27783;42.782;23.274;2022-12-18T06:57:39;96743.53;;;4.00
42119;BMP280;27783;42.782;23.274;2022-12-18T07:00:06;96739.84;;;4.01
42119;BMP280;27783;42.782;23.274;2022-12-18T07:02:33;96736.91;;;4.03
42119;BMP280;27783;42.782;23.274;2022-12-18T07:05:00;96740.28;;;4.03
42119;BMP280;27783;42.782;23.274;2022-12-18T07:07:28;96747.06;;;4.04
42119;BMP280;27783;42.782;23.274;2022-12-18T07:09:56;96742.88;;;4.12
42119;BMP280;27783;42.782;23.274;2022-12-18T07:12:23;96734.59;;;4.10
42119;BMP280;27783;42.782;23.274;2022-12-18T07:14:50;96741.34;;;4.11
42119;BMP280;27783;42.782;23.274;2022-12-18T07:17:17;96748.69;;;4.09
42119;BMP280;27783;42.782;23.274;2022-12-18T07:19:43;96748.69;;;4.09
42119;BMP280;27783;42.782;23.274;2022-12-18T07:22:11;96753.94;;;4.09
42119;BMP280;27783;42.782;23.274;2022-12-18T07:24:36;96757.63;;;4.08
42119;BMP280;27783;42.782;23.274;2022-12-18T07:27:02;96760.25;;;4.08
42119;BMP280;27783;42.782;23.274;2022-12-18T07:29:28;96765.31;;;3.96
42119;BMP280;27783;42.782;23.274;2022-12-18T07:31:53;96771.44;;;4.00
42119;BMP280;27783;42.782;23.274;2022-12-18T07:34:19;96767.31;;;3.99
42119;BMP280;27783;42.782;23.274;2022-12-18T07:37:06;96778.66;;;4.03
42119;BMP280;27783;42.782;23.274;2022-12-18T07:39:32;96781.72;;;4.05
42119;BMP280;27783;42.782;23.274;2022-12-18T07:41:58;96788.94;;;3.99
42119;BMP280;27783;42.782;23.274;2022-12-18T07:44:42;96782.66;;;4.00
42119;BMP280;27783;42.782;23.274;2022-12-18T07:47:12;96780.50;;;4.02
42119;BMP280;27783;42.782;23.274;2022-12-18T07:49:40;96775.41;;;4.06
42119;BMP280;27783;42.782;23.274;2022-12-18T07:52:05;96789.56;;;4.05
42119;BMP280;27783;42.782;23.274;2022-12-18T07:54:50;96792.31;;;4.00
42119;BMP280;27783;42.782;23.274;2022-12-18T07:57:17;96794.31;;;4.03
42119;BMP280;27783;42.782;23.274;2022-12-18T07:59:44;96795.66;;;4.09
42119;BMP280;27783;42.782;23.274;2022-12-18T08:02:09;96805.81;;;4.10
42119;BMP280;27783;42.782;23.274;2022-12-18T08:04:37;96796.56;;;4.13
42119;BMP280;27783;42.782;23.274;2022-12-18T08:07:04;96808.09;;;4.12
42119;BMP280;27783;42.782;23.274;2022-12-18T08:09:30;96808.56;;;4.14
42119;BMP280;27783;42.782;23.274;2022-12-18T08:11:57;96805.03;;;4.18
42119;BMP280;27783;42.782;23.274;2022-12-18T08:14:39;96809.63;;;4.13
42119;BMP280;27783;42.782;23.274;2022-12-18T08:17:12;96816.19;;;4.18
42119;BMP280;27783;42.782;23.274;2022-12-18T08:19:49;96819.44;;;4.24
42119;BMP280;27783;42.782;23.274;2022-12-18T08:22:16;96820.69;;;4.18
42119;BMP280;27783;42.782;23.274;2022-12-18T08:24:51;96830.16;;;4.22
42119;BMP280;27783;42.782;23.274;2022-12-18T08:27:17;96830.00;;;4.27
42119;BMP280;27783;42.782;23.274;2022-12-18T08:29:47;96840.13;;;4.37
42119;BMP280;27783;42.782;23.274;2022-12-18T08:32:12;96829.06;;;4.32
42119;BMP280;27783;42.782;23.274;2022-12-18T08:34:38;96841.03;;;4.32
42119;BMP280;27783;42.782;23.274;2022-12-18T08:37:10;96837.84;;;4.27
42119;BMP280;27783;42.782;23.274;2022-12-18T08:39:39;96844.28;;;4.30
42119;BMP280;27783;42.782;23.274;2022-12-18T08:42:05;96839.34;;;4.28
42119;BMP280;27783;42.782;23.274;2022-12-18T08:44:49;96843.78;;;4.36
42119;BMP280;27783;42.782;23.274;2022-12-18T08:47:16;96845.00;;;4.38
42119;BMP280;27783;42.782;23.274;2022-12-18T08:49:43;96848.25;;;4.35
42119;BMP280;27783;42.782;23.274;2022-12-18T08:52:08;96853.03;;;4.33
42119;BMP280;27783;42.782;23.274;2022-12-18T08:54:35;96843.94;;;4.39
42119;BMP280;27783;42.782;23.274;2022-12-18T08:57:05;96844.72;;;4.40
42119;BMP280;27783;42.782;23.274;2022-12-18T08:59:32;96843.16;;;4.47
42119;BMP280;27783;42.782;23.274;2022-12-18T09:02:03;96850.22;;;4.47
42119;BMP280;27783;42.782;23.274;2022-12-18T09:04:31;96845.91;;;4.50
42119;BMP280;27783;42.782;23.274;2022-12-18T09:06:57;96845.31;;;4.45
42119;BMP280;27783;42.782;23.274;2022-12-18T09:09:23;96835.00;;;4.48
42119;BMP280;27783;42.782;23.274;2022-12-18T09:11:52;96838.53;;;4.52
42119;BMP280;27783;42.782;23.274;2022-12-18T09:14:18;96849.75;;;4.53
42119;BMP280;27783;42.782;23.274;2022-12-18T09:16:43;96839.25;;;4.61
42119;BMP280;27783;42.782;23.274;2022-12-18T09:19:17;96842.34;;;4.55
42119;BMP280;27783;42.782;23.274;2022-12-18T09:21:44;96836.53;;;4.49
42119;BMP280;27783;42.782;23.274;2022-12-18T09:24:15;96833.50;;;4.48
42119;BMP280;27783;42.782;23.274;2022-12-18T09:26:43;96842.63;;;4.62
42119;BMP280;27783;42.782;23.274;2022-12-18T09:29:09;96837.13;;;4.63
42119;BMP280;27783;42.782;23.274;2022-12-18T09:31:38;96837.84;;;4.72
42119;BMP280;27783;42.782;23.274;2022-12-18T09:34:07;96846.00;;;4.70
42119;BMP280;27783;42.782;23.274;2022-12-18T09:36:34;96840.78;;;4.70
42119;BMP280;27783;42.782;23.274;2022-12-18T09:39:02;96839.34;;;4.81
42119;BMP280;27783;42.782;23.274;2022-12-18T09:41:45;96843.97;;;4.76
42119;BMP280;27783;42.782;23.274;2022-12-18T09:47:16;96839.66;;;4.80
42119;BMP280;27783;42.782;23.274;2022-12-18T09:50:17;96843.91;;;4.92
42119;BMP280;27783;42.782;23.274;2022-12-18T09:52:50;96838.53;;;4.89
42119;BMP280;27783;42.782;23.274;2022-12-18T09:57:50;96825.47;;;4.89
42119;BMP280;27783;42.782;23.274;2022-12-18T10:00:24;96841.91;;;4.89
42119;BMP280;27783;42.782;23.274;2022-12-18T10:03:01;96830.03;;;5.00
42119;BMP280;27783;42.782;23.274;2022-12-18T10:09:10;96828.38;;;4.96
42119;BMP280;27783;42.782;23.274;2022-12-18T10:15:01;96830.56;;;5.14
42119;BMP280;27783;42.782;23.274;2022-12-18T10:20:43;96834.34;;;5.24
42119;BMP280;27783;42.782;23.274;2022-12-18T10:23:31;96838.50;;;5.25
42119;BMP280;27783;42.782;23.274;2022-12-18T10:26:11;96834.88;;;5.38
42119;BMP280;27783;42.782;23.274;2022-12-18T10:28:41;96838.81;;;5.44
42119;BMP280;27783;42.782;23.274;2022-12-18T10:33:39;96842.59;;;5.54
42119;BMP280;27783;42.782;23.274;2022-12-18T10:36:07;96833.84;;;5.50
42119;BMP280;27783;42.782;23.274;2022-12-18T10:38:33;96830.59;;;5.53
42119;BMP280;27783;42.782;23.274;2022-12-18T10:43:44;96828.00;;;5.53
42119;BMP280;27783;42.782;23.274;2022-12-18T10:51:06;96819.78;;;5.63
42119;BMP280;27783;42.782;23.274;2022-12-18T10:53:34;96825.59;;;5.48
42119;BMP280;27783;42.782;23.274;2022-12-18T10:56:00;96829.47;;;5.63
42119;BMP280;27783;42.782;23.274;2022-12-18T10:58:39;96820.81;;;5.70
42119;BMP280;27783;42.782;23.274;2022-12-18T11:01:12;96826.56;;;5.64
42119;BMP280;27783;42.782;23.274;2022-12-18T11:04:01;96821.53;;;5.79
42119;BMP280;27783;42.782;23.274;2022-12-18T11:06:30;96824.63;;;5.73
42119;BMP280;27783;42.782;23.274;2022-12-18T11:09:03;96829.69;;;5.78
42119;BMP280;27783;42.782;23.274;2022-12-18T11:11:29;96820.75;;;5.79
42119;BMP280;27783;42.782;23.274;2022-12-18T11:14:18;96823.38;;;5.79
42119;BMP280;27783;42.782;23.274;2022-12-18T11:16:55;96823.63;;;5.85
42119;BMP280;27783;42.782;23.274;2022-12-18T11:19:37;96829.50;;;5.82
42119;BMP280;27783;42.782;23.274;2022-12-18T11:22:28;96839.97;;;5.82
42119;BMP280;27783;42.782;23.274;2022-12-18T11:25:02;96842.75;;;5.78
42119;BMP280;27783;42.782;23.274;2022-12-18T11:27:32;96837.97;;;5.80
42119;BMP280;27783;42.782;23.274;2022-12-18T11:30:32;96832.81;;;5.91
42119;BMP280;27783;42.782;23.274;2022-12-18T11:33:04;96846.06;;;5.86
42119;BMP280;27783;42.782;23.274;2022-12-18T11:38:15;96834.22;;;5.69
42119;BMP280;27783;42.782;23.274;2022-12-18T11:40:44;96831.88;;;5.76
42119;BMP280;27783;42.782;23.274;2022-12-18T11:43:33;96829.69;;;5.78
42119;BMP280;27783;42.782;23.274;2022-12-18T11:46:14;96827.63;;;5.83
42119;BMP280;27783;42.782;23.274;2022-12-18T11:51:52;96822.22;;;5.88
42119;BMP280;27783;42.782;23.274;2022-12-18T11:54:19;96819.25;;;5.89
42119;BMP280;27783;42.782;23.274;2022-12-18T12:08:47;96816.00;;;6.12
42119;BMP280;27783;42.782;23.274;2022-12-18T12:16:59;96823.97;;;6.16
42119;BMP280;27783;42.782;23.274;2022-12-18T12:20:41;96821.91;;;6.21
42119;BMP280;27783;42.782;23.274;2022-12-18T12:23:02;96828.16;;;6.28
42119;BMP280;27783;42.782;23.274;2022-12-18T12:25:52;96834.47;;;6.39
42119;BMP280;27783;42.782;23.274;2022-12-18T12:34:16;96827.69;;;6.26
42119;BMP280;27783;42.782;23.274;2022-12-18T12:39:33;96837.91;;;6.51
42119;BMP280;27783;42.782;23.274;2022-12-18T12:42:47;96837.03;;;6.47
42119;BMP280;27783;42.782;23.274;2022-12-18T12:45:42;96838.78;;;6.12
42119;BMP280;27783;42.782;23.274;2022-12-18T12:50:55;96838.34;;;5.90
42119;BMP280;27783;42.782;23.274;2022-12-18T12:53:37;96839.38;;;5.97
42119;BMP280;27783;42.782;23.274;2022-12-18T12:56:05;96841.22;;;5.77
42119;BMP280;27783;42.782;23.274;2022-12-18T13:04:58;96853.31;;;5.69
42119;BMP280;27783;42.782;23.274;2022-12-18T13:07:39;96860.56;;;5.64
42119;BMP280;27783;42.782;23.274;2022-12-18T13:13:07;96862.25;;;5.60
42119;BMP280;27783;42.782;23.274;2022-12-18T13:20:38;96866.72;;;5.60
42119;BMP280;27783;42.782;23.274;2022-12-18T13:33:42;96875.97;;;5.57
42119;BMP280;27783;42.782;23.274;2022-12-18T13:36:31;96892.28;;;5.54
42119;BMP280;27783;42.782;23.274;2022-12-18T13:44:59;96913.50;;;5.33
42119;BMP280;27783;42.782;23.274;2022-12-18T13:47:33;96903.66;;;5.30
42119;BMP280;27783;42.782;23.274;2022-12-18T13:50:23;96898.91;;;5.24
42119;BMP280;27783;42.782;23.274;2022-12-18T13:52:50;96902.66;;;5.15
42119;BMP280;27783;42.782;23.274;2022-12-18T13:55:19;96919.97;;;5.27
42119;BMP280;27783;42.782;23.274;2022-12-18T13:57:46;96910.00;;;5.21
42119;BMP280;27783;42.782;23.274;2022-12-18T14:00:33;96905.13;;;5.11
42119;BMP280;27783;42.782;23.274;2022-12-18T14:03:00;96903.28;;;5.12
42119;BMP280;27783;42.782;23.274;2022-12-18T14:05:35;96921.56;;;5.12
42119;BMP280;27783;42.782;23.274;2022-12-18T14:08:07;96925.13;;;5.07
42119;BMP280;27783;42.782;23.274;2022-12-18T14:10:47;96908.72;;;5.07
42119;BMP280;27783;42.782;23.274;2022-12-18T14:13:24;96911.47;;;5.02
42119;BMP280;27783;42.782;23.274;2022-12-18T14:15:50;96917.50;;;4.94
42119;BMP280;27783;42.782;23.274;2022-12-18T14:21:03;96923.97;;;4.97
42119;BMP280;27783;42.782;23.274;2022-12-18T14:23:40;96919.22;;;4.90
42119;BMP280;27783;42.782;23.274;2022-12-18T14:26:26;96924.88;;;4.92
42119;BMP280;27783;42.782;23.274;2022-12-18T14:28:55;96922.72;;;4.94
42119;BMP280;27783;42.782;23.274;2022-12-18T14:31:26;96926.44;;;4.93
42119;BMP280;27783;42.782;23.274;2022-12-18T14:33:54;96923.19;;;4.88
42119;BMP280;27783;42.782;23.274;2022-12-18T14:36:27;96927.66;;;4.87
42119;BMP280;27783;42.782;23.274;2022-12-18T14:38:59;96932.88;;;4.87
42119;BMP280;27783;42.782;23.274;2022-12-18T14:41:25;96925.66;;;4.84
42119;BMP280;27783;42.782;23.274;2022-12-18T14:43:53;96938.91;;;4.80
42119;BMP280;27783;42.782;23.274;2022-12-18T14:47:04;96930.47;;;4.74
42119;BMP280;27783;42.782;23.274;2022-12-18T14:49:32;96925.72;;;4.76
42119;BMP280;27783;42.782;23.274;2022-12-18T14:52:02;96937.88;;;4.64
42119;BMP280;27783;42.782;23.274;2022-12-18T14:54:30;96940.03;;;4.70
42119;BMP280;27783;42.782;23.274;2022-12-18T14:57:13;96938.94;;;4.63
42119;BMP280;27783;42.782;23.274;2022-12-18T14:59:41;96942.78;;;4.65
42119;BMP280;27783;42.782;23.274;2022-12-18T15:02:26;96930.47;;;4.74
42119;BMP280;27783;42.782;23.274;2022-12-18T15:05:17;96937.56;;;4.65
42119;BMP280;27783;42.782;23.274;2022-12-18T15:07:50;96940.66;;;4.59
42119;BMP280;27783;42.782;23.274;2022-12-18T15:20:59;96948.03;;;4.49
42119;BMP280;27783;42.782;23.274;2022-12-18T15:23:48;96951.84;;;4.51
42119;BMP280;27783;42.782;23.274;2022-12-18T15:26:16;96960.47;;;4.60
42119;BMP280;27783;42.782;23.274;2022-12-18T15:29:19;96963.06;;;4.52
42119;BMP280;27783;42.782;23.274;2022-12-18T15:31:58;96966.31;;;4.41
42119;BMP280;27783;42.782;23.274;2022-12-18T15:34:24;96974.44;;;4.39
42119;BMP280;27783;42.782;23.274;2022-12-18T15:36:52;96965.72;;;4.44
42119;BMP280;27783;42.782;23.274;2022-12-18T15:39:18;96966.19;;;4.37
42119;BMP280;27783;42.782;23.274;2022-12-18T15:41:44;96967.22;;;4.45
42119;BMP280;27783;42.782;23.274;2022-12-18T15:44:31;96978.91;;;4.39
42119;BMP280;27783;42.782;23.274;2022-12-18T15:46:58;96972.63;;;4.40
42119;BMP280;27783;42.782;23.274;2022-12-18T15:49:25;96984.88;;;4.39
42119;BMP280;27783;42.782;23.274;2022-12-18T15:51:58;96989.03;;;4.32
42119;BMP280;27783;42.782;23.274;2022-12-18T15:54:27;96993.78;;;4.38
42119;BMP280;27783;42.782;23.274;2022-12-18T15:57:11;96998.84;;;4.35
42119;BMP280;27783;42.782;23.274;2022-12-18T15:59:56;97003.47;;;4.38
42119;BMP280;27783;42.782;23.274;2022-12-18T16:02:24;96997.66;;;4.24
42119;BMP280;27783;42.782;23.274;2022-12-18T16:07:48;97010.22;;;4.31
42119;BMP280;27783;42.782;23.274;2022-12-18T16:10:14;97010.22;;;4.31
42119;BMP280;27783;42.782;23.274;2022-12-18T16:12:40;97016.06;;;4.28
42119;BMP280;27783;42.782;23.274;2022-12-18T16:15:06;97015.00;;;4.20
42119;BMP280;27783;42.782;23.274;2022-12-18T16:17:36;97010.22;;;4.22
42119;BMP280;27783;42.782;23.274;2022-12-18T16:20:01;97013.00;;;4.17
42119;BMP280;27783;42.782;23.274;2022-12-18T16:22:29;97013.00;;;4.17
42119;BMP280;27783;42.782;23.274;2022-12-18T16:24:56;97002.25;;;4.27
42119;BMP280;27783;42.782;23.274;2022-12-18T16:27:24;97009.59;;;4.25
42119;BMP280;27783;42.782;23.274;2022-12-18T16:29:50;97010.06;;;4.19
42119;BMP280;27783;42.782;23.274;2022-12-18T16:32:20;97023.25;;;4.22
42119;BMP280;27783;42.782;23.274;2022-12-18T16:34:50;97018.06;;;4.14
42119;BMP280;27783;42.782;23.274;2022-12-18T16:37:16;97028.16;;;4.15
42119;BMP280;27783;42.782;23.274;2022-12-18T16:39:42;97035.69;;;4.09
42119;BMP280;27783;42.782;23.274;2022-12-18T16:42:27;97046.28;;;4.04